Gravelly, Arkansas
Current Conditions -  °F | °C
As of 6:53 PM on Friday 19 Dec 2014 (Local Time) from KMWT Reporting Station
Overcast Overcast  
Wind Chill: 42°   Ceiling: 500
Heat Index: 42°   Visibility: 7mi
Dew Point: 40°   Wind: 0mph
Humidity: 92%   Direction: NA
Pressure: 30.18"   Gusts: NA
Location:  34.88°N, 93.69°W
Report Text: KMWT 200053Z AUTO 00000KT 7SM OVC005 06/04 A3018 RMK AO2 SLP227 T00560044
Loading
Personal Weather Stations






























Interactive Weather Map New forecast layout! Learn more

10-Day Weather Forecast

Advertisements
Track Severe Weather on mobile